createdAt,value
2023-03-13T00:01:19.126Z,99396.00
2023-03-13T00:03:46.553Z,99405.00
2023-03-13T00:06:14.403Z,99389.00
2023-03-13T00:08:41.875Z,99359.00
2023-03-13T00:11:11.692Z,99358.00
2023-03-13T00:13:39.076Z,99359.00
2023-03-13T00:16:13.341Z,99355.00
2023-03-13T00:18:49.529Z,99352.00
2023-03-13T00:21:18.320Z,99363.00
2023-03-13T00:23:46.427Z,99365.00
2023-03-13T00:26:18.788Z,99364.00
2023-03-13T00:28:46.344Z,99355.00
2023-03-13T00:31:25.016Z,99354.00
2023-03-13T00:33:57.448Z,99349.00
2023-03-13T00:36:30.916Z,99345.00
2023-03-13T00:38:58.733Z,99328.00
2023-03-13T00:41:29.543Z,99330.00
2023-03-13T00:43:57.378Z,99338.00
2023-03-13T00:46:28.451Z,99332.00
2023-03-13T00:48:56.152Z,99343.00
2023-03-13T00:51:26.668Z,99326.00
2023-03-13T00:53:54.925Z,99322.00
2023-03-13T00:56:22.116Z,99300.00
2023-03-13T00:58:50.490Z,99310.00
2023-03-13T01:01:34.445Z,99291.00
2023-03-13T01:04:09.093Z,99300.00
2023-03-13T01:06:40.453Z,99297.00
2023-03-13T01:09:08.436Z,99272.00
2023-03-13T01:11:38.382Z,99310.00
2023-03-13T01:14:15.998Z,99312.00
2023-03-13T01:16:43.420Z,99316.00
2023-03-13T01:19:15.202Z,99292.00
2023-03-13T01:21:44.700Z,99297.00
2023-03-13T01:24:12.450Z,99288.00
2023-03-13T01:26:39.684Z,99272.00
2023-03-13T01:29:06.568Z,99266.00
2023-03-13T01:31:35.819Z,99261.00
2023-03-13T01:34:05.835Z,99249.00
2023-03-13T01:36:35.648Z,99253.00
2023-03-13T01:39:02.666Z,99252.00
2023-03-13T01:41:30.961Z,99237.00
2023-03-13T01:43:58.511Z,99236.00
2023-03-13T01:46:30.372Z,99242.00
2023-03-13T01:49:02.955Z,99228.00
2023-03-13T01:51:34.922Z,99223.00
2023-03-13T01:54:11.754Z,99217.00
2023-03-13T01:57:04.459Z,99208.00
2023-03-13T01:59:48.684Z,99206.00
2023-03-13T02:02:16.777Z,99204.00
2023-03-13T02:04:50.458Z,99205.00
2023-03-13T02:08:01.808Z,99213.00
2023-03-13T02:10:31.714Z,99210.00
2023-03-13T02:13:02.556Z,99198.00
2023-03-13T02:15:31.476Z,99201.00
2023-03-13T02:17:58.586Z,99193.00
2023-03-13T02:20:25.468Z,99213.00
2023-03-13T02:23:13.523Z,99212.00
2023-03-13T02:25:48.624Z,99220.00
2023-03-13T02:28:28.003Z,99211.00
2023-03-13T02:30:58.542Z,99208.00
2023-03-13T02:33:32.469Z,99203.00
2023-03-13T02:36:03.172Z,99205.00
2023-03-13T02:38:34.960Z,99199.00
2023-03-13T02:41:04.852Z,99197.00
2023-03-13T02:43:38.343Z,99198.00
2023-03-13T02:46:15.539Z,99199.00
2023-03-13T02:48:46.923Z,99196.00
2023-03-13T02:51:41.692Z,99202.00
2023-03-13T02:54:18.245Z,99190.00
2023-03-13T02:56:51.421Z,99189.00
2023-03-13T02:59:18.409Z,99193.00
2023-03-13T03:01:45.742Z,99188.00
2023-03-13T03:04:12.818Z,99178.00
2023-03-13T03:06:39.702Z,99180.00
2023-03-13T03:09:06.624Z,99177.00
2023-03-13T03:11:33.418Z,99181.00
2023-03-13T03:14:00.289Z,99173.00
2023-03-13T03:16:27.176Z,99179.00
2023-03-13T03:18:54.047Z,99186.00
2023-03-13T03:21:21.293Z,99181.00
2023-03-13T03:23:48.133Z,99159.00
2023-03-13T03:26:14.992Z,99157.00
2023-03-13T03:28:42.015Z,99159.00
2023-03-13T03:31:12.630Z,99170.00
2023-03-13T03:33:40.637Z,99161.00
2023-03-13T03:36:13.729Z,99156.00
2023-03-13T03:38:41.761Z,99147.00
2023-03-13T03:41:10.274Z,99151.00
2023-03-13T03:43:37.568Z,99152.00
2023-03-13T03:46:04.766Z,99148.00
2023-03-13T03:48:32.288Z,99144.00
2023-03-13T03:50:59.359Z,99143.00
2023-03-13T03:53:26.462Z,99140.00
2023-03-13T03:55:53.305Z,99137.00
2023-03-13T03:58:20.218Z,99126.00
2023-03-13T04:00:48.321Z,99114.00
2023-03-13T04:03:16.148Z,99125.00
2023-03-13T04:05:43.851Z,99125.00
2023-03-13T04:08:10.971Z,99122.00
2023-03-13T04:10:37.840Z,99126.00
2023-03-13T04:13:04.739Z,99133.00
2023-03-13T04:15:31.666Z,99131.00
2023-03-13T04:17:58.487Z,99148.00
2023-03-13T04:20:25.587Z,99135.00
2023-03-13T04:22:53.701Z,99130.00
2023-03-13T04:25:20.797Z,99126.00
2023-03-13T04:27:47.643Z,99126.00
2023-03-13T04:30:16.290Z,99118.00
2023-03-13T04:32:44.652Z,99112.00
2023-03-13T04:35:11.546Z,99111.00
2023-03-13T04:37:38.402Z,99108.00
2023-03-13T04:40:07.029Z,99100.00
2023-03-13T04:42:33.810Z,99090.00
2023-03-13T04:45:00.624Z,99070.00
2023-03-13T04:47:27.465Z,99079.00
2023-03-13T04:49:54.310Z,99079.00
2023-03-13T04:52:21.244Z,99083.00
2023-03-13T04:54:48.281Z,99067.00
2023-03-13T04:57:19.741Z,99081.00
2023-03-13T04:59:46.640Z,99073.00
2023-03-13T05:02:13.918Z,99060.00
2023-03-13T05:04:43.751Z,99048.00
2023-03-13T05:07:10.547Z,99039.00
2023-03-13T05:09:37.360Z,99047.00
2023-03-13T05:12:04.557Z,99038.00
2023-03-13T05:14:31.398Z,99028.00
2023-03-13T05:16:58.268Z,99033.00
2023-03-13T05:19:25.195Z,99036.00
2023-03-13T05:21:52.072Z,99036.00
2023-03-13T05:24:18.933Z,99028.00
2023-03-13T05:26:45.763Z,99026.00
2023-03-13T05:29:12.626Z,99030.00
2023-03-13T05:31:39.487Z,99028.00
2023-03-13T05:34:06.322Z,99037.00
2023-03-13T05:36:33.156Z,99016.00
2023-03-13T05:39:00.022Z,99020.00
2023-03-13T05:41:26.951Z,99021.00
2023-03-13T05:43:53.798Z,99005.00
2023-03-13T05:46:20.743Z,99013.00
2023-03-13T05:48:47.648Z,99005.00
2023-03-13T05:51:14.634Z,99003.00
2023-03-13T05:53:41.571Z,99003.00
2023-03-13T05:56:11.491Z,99010.00
2023-03-13T05:58:38.375Z,99003.00
2023-03-13T06:01:14.086Z,99014.00
2023-03-13T06:03:41.155Z,99002.00
2023-03-13T06:06:08.121Z,98998.00
2023-03-13T06:08:37.739Z,98994.00
2023-03-13T06:11:07.514Z,98987.00
2023-03-13T06:13:34.614Z,98988.00
2023-03-13T06:16:01.885Z,98990.00
2023-03-13T06:18:28.761Z,98981.00
2023-03-13T06:21:01.184Z,98989.00
2023-03-13T06:23:28.540Z,98950.00
2023-03-13T06:25:56.623Z,98977.00
2023-03-13T06:28:23.574Z,98971.00
2023-03-13T06:30:50.505Z,98968.00
2023-03-13T06:33:17.518Z,98963.00
2023-03-13T06:35:55.808Z,98956.00
2023-03-13T06:38:25.129Z,98957.00
2023-03-13T06:40:52.479Z,98959.00
2023-03-13T06:43:19.958Z,98817.00
2023-03-13T06:45:47.362Z,98933.00
2023-03-13T06:48:14.629Z,98924.00
2023-03-13T06:50:42.162Z,98941.00
2023-03-13T06:53:19.487Z,98939.00
2023-03-13T06:55:47.191Z,98934.00
2023-03-13T06:58:28.807Z,98939.00
2023-03-13T07:00:59.050Z,98945.00
2023-03-13T07:03:26.129Z,98936.00
2023-03-13T07:05:58.125Z,98911.00
2023-03-13T07:08:25.719Z,98929.00
2023-03-13T07:10:53.753Z,98926.00
2023-03-13T07:13:21.806Z,98926.00
2023-03-13T07:15:49.471Z,98924.00
2023-03-13T07:18:16.529Z,98917.00
2023-03-13T07:20:44.005Z,98916.00
2023-03-13T07:23:10.893Z,98920.00
2023-03-13T07:25:37.733Z,98886.00
2023-03-13T07:28:04.770Z,98916.00
2023-03-13T07:30:31.702Z,98904.00
2023-03-13T07:32:59.120Z,98909.00
2023-03-13T07:35:26.085Z,98887.00
2023-03-13T07:37:52.999Z,98895.00
2023-03-13T07:40:20.108Z,98883.00
2023-03-13T07:42:46.980Z,98878.00
2023-03-13T07:45:13.835Z,98873.00
2023-03-13T07:47:40.674Z,98872.00
2023-03-13T07:50:08.545Z,98870.00
2023-03-13T07:52:35.556Z,98869.00
2023-03-13T07:55:02.447Z,98861.00
2023-03-13T07:57:29.344Z,98870.00
2023-03-13T07:59:56.171Z,98855.00
2023-03-13T08:02:23.171Z,98856.00
2023-03-13T08:04:53.218Z,98855.00
2023-03-13T08:07:20.141Z,98854.00
2023-03-13T08:09:47.247Z,98854.00
2023-03-13T08:12:14.125Z,98846.00
2023-03-13T08:14:40.928Z,98837.00
2023-03-13T08:17:07.844Z,98831.00
2023-03-13T08:19:34.748Z,98828.00
2023-03-13T08:22:02.622Z,98829.00
2023-03-13T08:24:29.566Z,98820.00
2023-03-13T08:26:56.377Z,98826.00
2023-03-13T08:29:23.214Z,98816.00
2023-03-13T08:31:54.343Z,98817.00
2023-03-13T08:34:21.310Z,98801.00
2023-03-13T08:36:48.313Z,98807.00
2023-03-13T08:39:18.586Z,98815.00
2023-03-13T08:41:48.995Z,98800.00
2023-03-13T08:44:20.033Z,98819.00
2023-03-13T08:46:49.134Z,98807.00
2023-03-13T08:49:17.575Z,98800.00
2023-03-13T08:51:44.583Z,98798.00
2023-03-13T08:54:11.492Z,98791.00
2023-03-13T08:56:38.415Z,98768.00
2023-03-13T08:59:06.625Z,98792.00
2023-03-13T09:01:35.882Z,98781.00
2023-03-13T09:04:04.975Z,98771.00
2023-03-13T09:06:38.359Z,98778.00
2023-03-13T09:09:08.077Z,98768.00
2023-03-13T09:11:37.285Z,98774.00
2023-03-13T09:14:04.166Z,98762.00
2023-03-13T09:16:32.906Z,98760.00
2023-03-13T09:19:01.092Z,98760.00
2023-03-13T09:21:34.193Z,98758.00
2023-03-13T09:24:02.029Z,98753.00
2023-03-13T09:26:29.206Z,98753.00
2023-03-13T09:28:56.523Z,98742.00
2023-03-13T09:31:27.790Z,98733.00
2023-03-13T09:33:55.060Z,98723.00
2023-03-13T09:36:23.956Z,98730.00
2023-03-13T09:38:57.596Z,98722.00
2023-03-13T09:41:40.326Z,98723.00
2023-03-13T09:44:23.222Z,98714.00
2023-03-13T09:47:08.494Z,98719.00
2023-03-13T09:49:42.823Z,98710.00
2023-03-13T09:52:40.492Z,98707.00
2023-03-13T09:55:22.384Z,98700.00
2023-03-13T09:57:55.811Z,98701.00
2023-03-13T10:00:31.838Z,98695.00
2023-03-13T10:03:31.456Z,98683.00
2023-03-13T10:06:24.698Z,98655.00
2023-03-13T10:08:52.859Z,98676.00
2023-03-13T10:11:44.572Z,98657.00
2023-03-13T10:14:29.761Z,98659.00
2023-03-13T10:17:07.268Z,98662.00
2023-03-13T10:19:43.396Z,98661.00
2023-03-13T10:22:22.789Z,98655.00
2023-03-13T10:25:09.753Z,98649.00
2023-03-13T10:27:51.138Z,98657.00
2023-03-13T10:30:31.356Z,98648.00
2023-03-13T10:33:12.125Z,98641.00
2023-03-13T10:35:42.598Z,98643.00
2023-03-13T10:38:20.463Z,98631.00
2023-03-13T10:41:05.557Z,98636.00
2023-03-13T10:43:32.465Z,98621.00
2023-03-13T10:45:59.488Z,98619.00
2023-03-13T10:48:35.827Z,98615.00
2023-03-13T10:51:02.692Z,98610.00
2023-03-13T10:53:29.465Z,98604.00
2023-03-13T10:56:08.989Z,98601.00
2023-03-13T10:58:51.749Z,98597.00
2023-03-13T11:01:42.191Z,98588.00
2023-03-13T11:04:39.004Z,98579.00
2023-03-13T11:07:21.176Z,98571.00
2023-03-13T11:10:19.253Z,98561.00
2023-03-13T11:12:53.176Z,98569.00
2023-03-13T11:15:41.443Z,98548.00
2023-03-13T11:18:29.412Z,98540.00
2023-03-13T11:21:08.717Z,98531.00
2023-03-13T11:23:53.890Z,98522.00
2023-03-13T11:27:03.859Z,98507.00
2023-03-13T11:30:07.602Z,98516.00
2023-03-13T11:32:52.336Z,98513.00
2023-03-13T11:35:37.202Z,98498.00
2023-03-13T11:38:20.160Z,98512.00
2023-03-13T11:41:37.718Z,98496.00
2023-03-13T11:44:22.773Z,98491.00
2023-03-13T11:47:29.263Z,98494.00
2023-03-13T11:50:07.622Z,98480.00
2023-03-13T11:53:24.795Z,98454.00
2023-03-13T11:56:13.913Z,98456.00
2023-03-13T11:58:49.223Z,98469.00
2023-03-13T12:01:27.262Z,98452.00
2023-03-13T12:04:11.646Z,98441.00
2023-03-13T12:06:52.165Z,98427.00
2023-03-13T12:09:51.671Z,98428.00
2023-03-13T12:12:59.926Z,98414.00
2023-03-13T12:15:45.284Z,98407.00
2023-03-13T12:18:34.359Z,98406.00
2023-03-13T12:21:34.861Z,98396.00
2023-03-13T12:24:12.721Z,98393.00
2023-03-13T12:26:55.359Z,98345.00
2023-03-13T12:29:41.982Z,98379.00
2023-03-13T12:32:22.381Z,98369.00
2023-03-13T12:35:12.659Z,98371.00
2023-03-13T12:37:50.186Z,98373.00
2023-03-13T12:40:34.112Z,98367.00
2023-03-13T12:43:19.493Z,98361.00
2023-03-13T12:45:57.063Z,98349.00
2023-03-13T12:49:12.276Z,98335.00
2023-03-13T12:52:02.498Z,98338.00
2023-03-13T12:55:08.192Z,98325.00
2023-03-13T12:58:10.664Z,98331.00
2023-03-13T13:00:42.543Z,98331.00
2023-03-13T13:03:45.069Z,98325.00
2023-03-13T13:06:15.668Z,98310.00
2023-03-13T13:08:54.664Z,98311.00
2023-03-13T13:11:39.627Z,98299.00
2023-03-13T13:14:18.256Z,98299.00
2023-03-13T13:17:16.514Z,98290.00
2023-03-13T13:19:46.055Z,98282.00
2023-03-13T13:22:37.849Z,98287.00
2023-03-13T13:25:10.616Z,98271.00
2023-03-13T13:27:37.379Z,98263.00
2023-03-13T13:30:30.399Z,98261.00
2023-03-13T13:33:20.438Z,98241.00
2023-03-13T13:36:10.619Z,98251.00
2023-03-13T13:38:42.686Z,98272.00
2023-03-13T13:41:09.567Z,98266.00
2023-03-13T13:43:45.868Z,98253.00
2023-03-13T13:46:33.219Z,98238.00
2023-03-13T13:49:06.682Z,98240.00
2023-03-13T13:51:42.155Z,98236.00
2023-03-13T13:54:55.024Z,98247.00
2023-03-13T13:57:29.926Z,98242.00
2023-03-13T14:00:05.692Z,98245.00
2023-03-13T14:02:52.187Z,98229.00
2023-03-13T14:05:29.257Z,98209.00
2023-03-13T14:08:17.464Z,98209.00
2023-03-13T14:11:30.454Z,98205.00
2023-03-13T14:14:21.672Z,98219.00
2023-03-13T14:16:54.207Z,98218.00
2023-03-13T14:19:42.113Z,98209.00
2023-03-13T14:22:14.247Z,98207.00
2023-03-13T14:24:41.279Z,98206.00
2023-03-13T14:27:19.878Z,98203.00
2023-03-13T14:30:11.066Z,98210.00
2023-03-13T14:32:39.429Z,98206.00
2023-03-13T14:35:09.378Z,98205.00
2023-03-13T14:38:02.360Z,98187.00
2023-03-13T14:40:33.016Z,98203.00
2023-03-13T14:43:02.850Z,98192.00
2023-03-13T14:45:35.599Z,98200.00
2023-03-13T14:48:22.750Z,98173.00
2023-03-13T14:51:12.548Z,98215.00
2023-03-13T14:53:59.213Z,98198.00
2023-03-13T14:56:38.234Z,98186.00
2023-03-13T14:59:19.473Z,98199.00
2023-03-13T15:01:46.886Z,98194.00
2023-03-13T15:04:13.940Z,98189.00
2023-03-13T15:06:41.031Z,98196.00
2023-03-13T15:09:18.457Z,98182.00
2023-03-13T15:11:59.268Z,98189.00
2023-03-13T15:14:45.876Z,98189.00
2023-03-13T15:17:23.695Z,98179.00
2023-03-13T15:19:56.989Z,98180.00
2023-03-13T15:22:33.305Z,98193.00
2023-03-13T15:25:08.233Z,98183.00
2023-03-13T15:27:36.052Z,98175.00
2023-03-13T15:30:03.195Z,98177.00
2023-03-13T15:32:35.898Z,98185.00
2023-03-13T15:35:21.409Z,98187.00
2023-03-13T15:37:48.290Z,98181.00
2023-03-13T15:40:17.099Z,98188.00
2023-03-13T15:42:44.138Z,98171.00
2023-03-13T15:45:11.765Z,98183.00
2023-03-13T15:47:38.620Z,98184.00
2023-03-13T15:50:12.760Z,98192.00
2023-03-13T15:52:40.069Z,98196.00
2023-03-13T15:55:08.430Z,98191.00
2023-03-13T15:57:40.987Z,98194.00
2023-03-13T16:00:29.901Z,98193.00
2023-03-13T16:02:56.798Z,98188.00
2023-03-13T16:05:23.626Z,98189.00
2023-03-13T16:07:50.451Z,98199.00
2023-03-13T16:10:25.823Z,98192.00
2023-03-13T16:12:55.948Z,98203.00
2023-03-13T16:15:23.130Z,98196.00
2023-03-13T16:17:50.369Z,98202.00
2023-03-13T16:20:21.622Z,98196.00
2023-03-13T16:22:48.589Z,98206.00
2023-03-13T16:25:15.853Z,98212.00
2023-03-13T16:27:43.464Z,98197.00
2023-03-13T16:30:32.891Z,98216.00
2023-03-13T16:33:00.474Z,98220.00
2023-03-13T16:35:28.808Z,98217.00
2023-03-13T16:37:57.946Z,98238.00
2023-03-13T16:40:32.108Z,98224.00
2023-03-13T16:42:59.284Z,98222.00
2023-03-13T16:45:26.951Z,98216.00
2023-03-13T16:47:54.081Z,98217.00
2023-03-13T16:50:29.534Z,98206.00
2023-03-13T16:52:56.507Z,98218.00
2023-03-13T16:55:28.380Z,98219.00
2023-03-13T16:58:01.851Z,98222.00
2023-03-13T17:00:32.035Z,98220.00
2023-03-13T17:02:59.552Z,98224.00
2023-03-13T17:05:27.572Z,98225.00
2023-03-13T17:07:54.930Z,98229.00
2023-03-13T17:10:28.858Z,98218.00
2023-03-13T17:12:56.370Z,98221.00
2023-03-13T17:15:25.368Z,98221.00
2023-03-13T17:17:54.062Z,98206.00
2023-03-13T17:20:27.398Z,98204.00
2023-03-13T17:22:57.993Z,98211.00
2023-03-13T17:25:25.347Z,98214.00
2023-03-13T17:27:52.335Z,98210.00
2023-03-13T17:30:30.066Z,98206.00
2023-03-13T17:32:58.997Z,98215.00
2023-03-13T17:35:25.986Z,98223.00
2023-03-13T17:37:53.162Z,98215.00
2023-03-13T17:40:28.524Z,98212.00
2023-03-13T17:42:56.353Z,98209.00
2023-03-13T17:45:24.115Z,98220.00
2023-03-13T17:47:54.542Z,98225.00
2023-03-13T17:50:27.342Z,98219.00
2023-03-13T17:52:55.029Z,98215.00
2023-03-13T17:55:22.650Z,98208.00
2023-03-13T17:57:49.726Z,98211.00
2023-03-13T18:00:25.572Z,98218.00
2023-03-13T18:02:52.475Z,98223.00
2023-03-13T18:05:19.448Z,98229.00
2023-03-13T18:07:48.468Z,98221.00
2023-03-13T18:10:28.119Z,98220.00
2023-03-13T18:12:55.282Z,98224.00
2023-03-13T18:15:25.494Z,98231.00
2023-03-13T18:17:52.991Z,98226.00
2023-03-13T18:20:25.416Z,98225.00
2023-03-13T18:22:52.578Z,98221.00
2023-03-13T18:25:19.688Z,98219.00
2023-03-13T18:27:46.506Z,98217.00
2023-03-13T18:30:23.412Z,98173.00
2023-03-13T18:32:50.611Z,98186.00
2023-03-13T18:35:18.268Z,98189.00
2023-03-13T18:37:47.587Z,98200.00
2023-03-13T18:40:20.851Z,98199.00
2023-03-13T18:42:47.773Z,98191.00
2023-03-13T18:45:29.260Z,98188.00
2023-03-13T18:47:56.623Z,98181.00
2023-03-13T18:50:31.617Z,98173.00
2023-03-13T18:53:00.305Z,98177.00
2023-03-13T18:55:30.882Z,98175.00
2023-03-13T18:57:57.968Z,98176.00
2023-03-13T19:00:30.886Z,98172.00
2023-03-13T19:02:57.793Z,98163.00
2023-03-13T19:05:24.950Z,98100.00
2023-03-13T19:07:51.899Z,98186.00
2023-03-13T19:10:24.764Z,98174.00
2023-03-13T19:12:53.806Z,98175.00
2023-03-13T19:15:24.332Z,98175.00
2023-03-13T19:17:52.841Z,98158.00
2023-03-13T19:20:27.700Z,98178.00
2023-03-13T19:22:56.253Z,98171.00
2023-03-13T19:25:23.626Z,98166.00
2023-03-13T19:27:52.497Z,98162.00
2023-03-13T19:30:23.240Z,98165.00
2023-03-13T19:32:50.695Z,98160.00
2023-03-13T19:35:21.039Z,98168.00
2023-03-13T19:37:48.446Z,98167.00
2023-03-13T19:40:28.661Z,98141.00
2023-03-13T19:42:55.564Z,98138.00
2023-03-13T19:45:22.460Z,98163.00
2023-03-13T19:47:50.331Z,98164.00
2023-03-13T19:50:29.872Z,98176.00
2023-03-13T19:52:57.007Z,98173.00
2023-03-13T19:55:24.118Z,98172.00
2023-03-13T19:57:54.078Z,98172.00
2023-03-13T20:00:24.923Z,98163.00
2023-03-13T20:02:57.657Z,98152.00
2023-03-13T20:05:28.805Z,98136.00
2023-03-13T20:07:55.809Z,98131.00
2023-03-13T20:10:23.095Z,98164.00
2023-03-13T20:12:49.956Z,98155.00
2023-03-13T20:15:17.447Z,98158.00
2023-03-13T20:17:44.593Z,98145.00
2023-03-13T20:20:15.935Z,98156.00
2023-03-13T20:22:43.685Z,98147.00
2023-03-13T20:25:11.046Z,98142.00
2023-03-13T20:27:39.123Z,98138.00
2023-03-13T20:30:07.204Z,98121.00
2023-03-13T20:32:34.249Z,98137.00
2023-03-13T20:35:02.350Z,98137.00
2023-03-13T20:37:29.282Z,98136.00
2023-03-13T20:39:56.266Z,98143.00
2023-03-13T20:42:23.310Z,98143.00
2023-03-13T20:44:50.183Z,98145.00
2023-03-13T20:47:17.452Z,98134.00
2023-03-13T20:49:44.309Z,98128.00
2023-03-13T20:52:11.186Z,98123.00
2023-03-13T20:54:38.899Z,98131.00
2023-03-13T20:57:06.193Z,98134.00
2023-03-13T20:59:33.100Z,98135.00
2023-03-13T21:02:00.114Z,98129.00
2023-03-13T21:04:27.062Z,98138.00
2023-03-13T21:06:54.233Z,98107.00
2023-03-13T21:09:21.488Z,98116.00
2023-03-13T21:11:48.543Z,98109.00
2023-03-13T21:14:15.484Z,98118.00
2023-03-13T21:16:42.372Z,98106.00
2023-03-13T21:19:09.276Z,98105.00
2023-03-13T21:21:36.170Z,98101.00
2023-03-13T21:24:03.030Z,98100.00
2023-03-13T21:26:30.371Z,98096.00
2023-03-13T21:28:57.456Z,98105.00
2023-03-13T21:31:25.069Z,98091.00
2023-03-13T21:33:52.262Z,98110.00
2023-03-13T21:36:21.202Z,98102.00
2023-03-13T21:38:50.300Z,98102.00
2023-03-13T21:41:20.869Z,98102.00
2023-03-13T21:43:48.088Z,98106.00
2023-03-13T21:46:17.946Z,98113.00
2023-03-13T21:51:18.063Z,98103.00
2023-03-13T21:53:46.600Z,98104.00
2023-03-13T21:56:15.536Z,98106.00
2023-03-13T21:58:45.599Z,98103.00
2023-03-13T22:01:14.794Z,98098.00
2023-03-13T22:03:42.242Z,98099.00
2023-03-13T22:06:20.869Z,98089.00
2023-03-13T22:08:51.130Z,98084.00
2023-03-13T22:11:18.872Z,98086.00
2023-03-13T22:13:45.828Z,98093.00
2023-03-13T22:16:12.776Z,98086.00
2023-03-13T22:18:41.793Z,98081.00
2023-03-13T22:21:08.910Z,98067.00
2023-03-13T22:23:35.777Z,98077.00
2023-03-13T22:26:03.377Z,98064.00
2023-03-13T22:28:30.341Z,98055.00
2023-03-13T22:31:01.672Z,98047.00
2023-03-13T22:33:28.538Z,98024.00
2023-03-13T22:35:55.550Z,98021.00
2023-03-13T22:38:22.683Z,98021.00
2023-03-13T22:41:05.136Z,98014.00
2023-03-13T22:43:32.313Z,98009.00
2023-03-13T22:45:59.667Z,98016.00
2023-03-13T22:48:28.147Z,98005.00
2023-03-13T22:51:08.956Z,98021.00
2023-03-13T22:53:39.185Z,98001.00
2023-03-13T22:56:09.884Z,97993.00
2023-03-13T22:58:37.423Z,97995.00
2023-03-13T23:01:16.757Z,97986.00
2023-03-13T23:03:45.133Z,97992.00
2023-03-13T23:06:22.406Z,98000.00
2023-03-13T23:08:52.466Z,98000.00
2023-03-13T23:11:20.603Z,98008.00
2023-03-13T23:13:47.559Z,97994.00
2023-03-13T23:16:14.932Z,97999.00
2023-03-13T23:18:42.635Z,98002.00
2023-03-13T23:21:14.307Z,97997.00
2023-03-13T23:23:42.109Z,97998.00
2023-03-13T23:26:14.317Z,98009.00
2023-03-13T23:28:41.637Z,97987.00
2023-03-13T23:31:21.240Z,98011.00
2023-03-13T23:33:49.315Z,98000.00
2023-03-13T23:36:19.613Z,98014.00
2023-03-13T23:38:52.290Z,98007.00
2023-03-13T23:41:20.796Z,97997.00
2023-03-13T23:43:47.916Z,98008.00
2023-03-13T23:46:20.858Z,98005.00
2023-03-13T23:48:47.861Z,97995.00
2023-03-13T23:51:14.749Z,98000.00
2023-03-13T23:53:43.246Z,97991.00
2023-03-13T23:56:11.408Z,97980.00
2023-03-13T23:58:38.677Z,97982.00
